createdAt,value
2017-11-18T00:00:49.487Z,14.77
2017-11-18T00:03:15.757Z,15.23
2017-11-18T00:05:42.045Z,15.73
2017-11-18T00:08:08.390Z,15.50
2017-11-18T00:10:35.384Z,13.80
2017-11-18T00:13:01.686Z,15.20
2017-11-18T00:15:27.932Z,15.83
2017-11-18T00:17:54.199Z,13.43
2017-11-18T00:20:20.484Z,13.13
2017-11-18T00:22:47.014Z,13.63
2017-11-18T00:25:14.050Z,13.57
2017-11-18T00:27:41.031Z,13.80
2017-11-18T00:30:07.411Z,12.30
2017-11-18T00:32:33.671Z,13.17
2017-11-18T00:34:59.984Z,13.37
2017-11-18T00:37:27.019Z,12.13
2017-11-18T00:39:53.272Z,11.40
2017-11-18T00:42:20.446Z,11.80
2017-11-18T00:44:46.755Z,12.00
2017-11-18T00:47:13.791Z,13.17
2017-11-18T00:49:40.774Z,10.60
2017-11-18T00:52:07.065Z,11.23
2017-11-18T00:54:34.081Z,11.57
2017-11-18T00:57:01.214Z,11.17
2017-11-18T00:59:27.521Z,10.93
2017-11-18T01:01:53.798Z,12.13
2017-11-18T01:04:20.121Z,11.37
2017-11-18T01:06:46.396Z,12.17
2017-11-18T01:09:13.434Z,11.40
2017-11-18T01:11:41.413Z,12.10
2017-11-18T01:14:08.453Z,12.77
2017-11-18T01:16:35.494Z,10.90
2017-11-18T01:19:02.567Z,11.73
2017-11-18T01:21:28.904Z,10.40
2017-11-18T01:23:55.246Z,11.30
2017-11-18T01:26:21.495Z,11.57
2017-11-18T01:28:47.780Z,10.80
2017-11-18T01:31:14.759Z,11.33
2017-11-18T01:33:41.095Z,11.17
2017-11-18T01:36:07.389Z,9.63
2017-11-18T01:38:34.396Z,8.83
2017-11-18T01:41:00.720Z,9.47
2017-11-18T01:43:26.988Z,10.43
2017-11-18T01:45:54.003Z,10.60
2017-11-18T01:48:20.314Z,10.67
2017-11-18T01:50:46.634Z,10.63
2017-11-18T01:53:12.939Z,9.73
2017-11-18T01:55:39.260Z,9.60
2017-11-18T01:58:06.338Z,9.50
2017-11-18T02:00:32.632Z,8.73
2017-11-18T02:02:59.650Z,9.87
2017-11-18T02:05:25.921Z,9.33
2017-11-18T02:07:52.909Z,9.37
2017-11-18T02:10:19.271Z,9.00
2017-11-18T02:12:45.549Z,8.77
2017-11-18T02:15:12.030Z,7.83
2017-11-18T02:17:38.304Z,9.03
2017-11-18T02:20:04.639Z,8.60
2017-11-18T02:22:31.005Z,7.53
2017-11-18T02:24:57.337Z,5.73
2017-11-18T02:27:23.660Z,6.23
2017-11-18T02:29:49.997Z,5.70
2017-11-18T02:32:16.269Z,6.63
2017-11-18T02:34:43.340Z,6.13
2017-11-18T02:37:09.596Z,5.60
2017-11-18T02:39:35.888Z,6.30
2017-11-18T02:42:02.157Z,6.27
2017-11-18T02:44:28.446Z,6.63
2017-11-18T02:46:55.458Z,5.90
2017-11-18T02:49:21.718Z,5.63
2017-11-18T02:51:48.846Z,5.27
2017-11-18T02:54:15.102Z,5.40
2017-11-18T02:56:42.186Z,6.70
2017-11-18T02:59:08.452Z,6.37
2017-11-18T03:01:35.524Z,5.87
2017-11-18T03:04:02.550Z,5.47
2017-11-18T03:06:28.817Z,4.90
2017-11-18T03:08:55.927Z,5.97
2017-11-18T03:11:22.215Z,5.23
2017-11-18T03:13:48.518Z,5.60
2017-11-18T03:16:15.529Z,5.90
2017-11-18T03:18:41.781Z,6.40
2017-11-18T03:21:08.046Z,6.60
2017-11-18T03:23:34.336Z,6.63
2017-11-18T03:26:00.623Z,5.30
2017-11-18T03:28:26.881Z,6.47
2017-11-18T03:30:53.167Z,7.00
2017-11-18T03:33:19.467Z,6.20
2017-11-18T03:35:46.518Z,6.90
2017-11-18T03:38:13.524Z,7.23
2017-11-18T03:40:39.826Z,6.73
2017-11-18T03:43:06.119Z,5.70
2017-11-18T03:45:32.378Z,6.27
2017-11-18T03:47:58.630Z,6.90
2017-11-18T03:50:24.890Z,8.23
2017-11-18T03:52:51.148Z,6.70
2017-11-18T03:55:18.187Z,8.20
2017-11-18T03:57:45.178Z,8.30
2017-11-18T04:00:11.426Z,7.70
2017-11-18T04:02:37.716Z,8.03
2017-11-18T04:05:04.015Z,7.10
2017-11-18T04:07:30.286Z,7.40
2017-11-18T04:09:56.585Z,8.40
2017-11-18T04:12:23.633Z,8.80
2017-11-18T04:14:50.678Z,8.20
2017-11-18T04:17:17.694Z,9.27
2017-11-18T04:19:43.978Z,8.67
2017-11-18T04:22:10.278Z,7.03
2017-11-18T04:24:37.311Z,7.33
2017-11-18T04:27:03.577Z,6.23
2017-11-18T04:29:30.629Z,8.80
2017-11-18T04:31:57.692Z,7.93
2017-11-18T04:34:23.962Z,7.83
2017-11-18T04:36:50.462Z,6.90
2017-11-18T04:39:16.757Z,7.20
2017-11-18T04:41:43.780Z,7.80
2017-11-18T04:44:10.056Z,9.20
2017-11-18T04:46:36.408Z,7.70
2017-11-18T04:49:02.699Z,7.70
2017-11-18T04:51:29.728Z,7.87
2017-11-18T04:53:56.024Z,7.30
2017-11-18T04:56:23.682Z,7.60
2017-11-18T04:58:49.966Z,8.00
2017-11-18T05:01:17.816Z,6.90
2017-11-18T05:03:44.103Z,7.60
2017-11-18T05:06:10.386Z,7.63
2017-11-18T05:08:37.489Z,6.93
2017-11-18T05:11:03.921Z,7.80
2017-11-18T05:13:30.253Z,7.73
2017-11-18T05:15:56.543Z,8.57
2017-11-18T05:18:23.553Z,7.77
2017-11-18T05:20:49.841Z,8.03
2017-11-18T05:23:16.129Z,9.50
2017-11-18T05:25:42.466Z,10.20
2017-11-18T05:28:09.495Z,8.03
2017-11-18T05:30:35.756Z,8.60
2017-11-18T05:33:02.034Z,8.57
2017-11-18T05:35:28.341Z,7.80
2017-11-18T05:37:54.654Z,8.93
2017-11-18T05:40:21.668Z,8.67
2017-11-18T05:42:48.114Z,8.37
2017-11-18T05:45:14.413Z,7.83
2017-11-18T05:47:40.688Z,8.47
2017-11-18T05:50:07.740Z,8.63
2017-11-18T05:52:34.777Z,7.87
2017-11-18T05:55:01.818Z,8.80
2017-11-18T05:57:28.139Z,7.90
2017-11-18T05:59:54.417Z,9.47
2017-11-18T06:02:20.804Z,9.10
2017-11-18T06:04:47.871Z,8.40
2017-11-18T06:07:14.145Z,7.60
2017-11-18T06:09:40.441Z,8.33
2017-11-18T06:12:06.761Z,7.80
2017-11-18T06:14:33.122Z,8.50
2017-11-18T06:16:59.408Z,8.93
2017-11-18T06:19:25.689Z,10.10
2017-11-18T06:21:51.979Z,10.57
2017-11-18T06:24:18.293Z,9.87
2017-11-18T06:26:44.571Z,12.53
2017-11-18T06:29:10.879Z,14.17
2017-11-18T06:31:37.941Z,14.57
2017-11-18T06:34:04.947Z,14.30
2017-11-18T06:36:31.227Z,12.80
2017-11-18T06:38:57.483Z,13.73
2017-11-18T06:41:23.764Z,15.00
2017-11-18T06:43:50.773Z,14.13
2017-11-18T06:46:17.074Z,12.43
2017-11-18T06:48:43.399Z,14.93
2017-11-18T06:51:09.706Z,14.03
2017-11-18T06:53:36.703Z,13.60
2017-11-18T06:56:03.018Z,13.40
2017-11-18T06:58:29.288Z,13.10
2017-11-18T07:00:55.612Z,13.20
2017-11-18T07:03:22.693Z,12.50
2017-11-18T07:05:49.764Z,14.40
2017-11-18T07:08:16.043Z,13.93
2017-11-18T07:10:42.414Z,16.53
2017-11-18T07:13:08.703Z,14.80
2017-11-18T07:15:35.011Z,14.43
2017-11-18T07:18:01.353Z,14.40
2017-11-18T07:20:27.625Z,13.23
2017-11-18T07:22:54.693Z,14.10
2017-11-18T07:25:21.066Z,12.97
2017-11-18T07:27:47.329Z,14.27
2017-11-18T07:30:14.375Z,14.67
2017-11-18T07:32:41.404Z,15.43
2017-11-18T07:35:07.738Z,14.20
2017-11-18T07:37:34.854Z,13.33
2017-11-18T07:40:01.175Z,14.80
2017-11-18T07:42:27.452Z,15.50
2017-11-18T07:44:53.720Z,17.07
2017-11-18T07:47:20.012Z,17.47
2017-11-18T07:49:47.099Z,15.53
2017-11-18T07:52:13.391Z,17.80
2017-11-18T07:54:40.418Z,16.80
2017-11-18T07:57:06.779Z,16.67
2017-11-18T07:59:33.055Z,13.70
2017-11-18T08:01:59.387Z,16.13
2017-11-18T08:04:25.687Z,13.93
2017-11-18T08:06:52.707Z,16.07
2017-11-18T08:09:18.985Z,14.77
2017-11-18T08:11:45.266Z,14.10
2017-11-18T08:14:11.680Z,14.30
2017-11-18T08:16:37.995Z,15.40
2017-11-18T08:19:04.328Z,16.03
2017-11-18T08:21:30.729Z,15.87
2017-11-18T08:23:57.008Z,16.10
2017-11-18T08:26:23.309Z,14.67
2017-11-18T08:28:49.635Z,15.93
2017-11-18T08:31:16.122Z,15.57
2017-11-18T08:33:42.417Z,16.00
2017-11-18T08:36:27.469Z,16.37
2017-11-18T08:38:53.747Z,17.07
2017-11-18T08:41:20.001Z,13.63
2017-11-18T08:43:47.044Z,13.53
2017-11-18T08:46:14.079Z,14.63
2017-11-18T08:48:40.369Z,14.67
2017-11-18T08:51:06.673Z,13.57
2017-11-18T08:53:32.953Z,13.20
2017-11-18T08:55:59.331Z,14.07
2017-11-18T08:58:25.685Z,12.43
2017-11-18T09:00:52.121Z,12.87
2017-11-18T09:03:18.448Z,12.60
2017-11-18T09:05:44.824Z,11.70
2017-11-18T09:08:11.101Z,11.30
2017-11-18T09:10:37.540Z,12.50
2017-11-18T09:13:03.902Z,12.20
2017-11-18T09:15:30.253Z,11.80
2017-11-18T09:17:56.550Z,12.97
2017-11-18T09:20:22.862Z,10.40
2017-11-18T09:22:49.166Z,10.20
2017-11-18T09:25:16.176Z,9.90
2017-11-18T09:27:42.466Z,9.43
2017-11-18T09:30:08.805Z,10.43
2017-11-18T09:32:35.099Z,9.20
2017-11-18T09:35:01.392Z,10.23
2017-11-18T09:37:27.678Z,8.43
2017-11-18T09:39:54.723Z,10.13
2017-11-18T09:42:21.003Z,8.93
2017-11-18T09:44:47.319Z,9.73
2017-11-18T09:47:13.621Z,9.40
2017-11-18T09:49:40.691Z,7.87
2017-11-18T09:52:07.053Z,9.60
2017-11-18T09:54:33.359Z,8.40
2017-11-18T09:56:59.690Z,8.30
2017-11-18T09:59:25.987Z,8.00
2017-11-18T10:01:53.034Z,7.97
2017-11-18T10:04:20.131Z,7.90
2017-11-18T10:06:46.416Z,6.77
2017-11-18T10:09:13.476Z,7.87
2017-11-18T10:11:39.793Z,6.93
2017-11-18T10:14:06.937Z,7.93
2017-11-18T10:16:34.173Z,7.77
2017-11-18T10:19:00.501Z,9.27
2017-11-18T10:21:27.537Z,8.13
2017-11-18T10:23:53.838Z,9.37
2017-11-18T10:26:20.175Z,7.50
2017-11-18T10:28:46.510Z,8.60
2017-11-18T10:31:12.807Z,8.90
2017-11-18T10:33:39.112Z,7.60
2017-11-18T10:36:05.443Z,9.63
2017-11-18T10:38:33.022Z,8.87
2017-11-18T10:41:00.072Z,6.90
2017-11-18T10:43:27.206Z,8.70
2017-11-18T10:45:54.267Z,8.63
2017-11-18T10:48:21.320Z,8.20
2017-11-18T10:50:47.616Z,8.70
2017-11-18T10:53:13.967Z,8.00
2017-11-18T10:55:40.975Z,8.87
2017-11-18T10:58:07.284Z,8.27
2017-11-18T11:00:33.585Z,9.30
2017-11-18T11:03:00.642Z,7.67
2017-11-18T11:05:27.038Z,8.90
2017-11-18T11:07:54.780Z,9.10
2017-11-18T11:10:21.099Z,9.17
2017-11-18T11:12:47.413Z,10.63
2017-11-18T11:15:13.750Z,9.33
2017-11-18T11:17:40.050Z,8.47
2017-11-18T11:20:07.095Z,9.10
2017-11-18T11:22:34.193Z,9.83
2017-11-18T11:25:00.500Z,10.10
2017-11-18T11:27:26.817Z,11.00
2017-11-18T11:29:53.152Z,12.87
2017-11-18T11:32:19.446Z,9.57
2017-11-18T11:34:45.753Z,10.47
2017-11-18T11:37:12.076Z,10.00
2017-11-18T11:39:38.410Z,11.53
2017-11-18T11:42:04.730Z,10.07
2017-11-18T11:44:31.050Z,10.73
2017-11-18T11:46:57.379Z,8.30
2017-11-18T11:49:23.661Z,8.90
2017-11-18T11:51:50.285Z,7.57
2017-11-18T11:54:16.735Z,7.73
2017-11-18T11:56:43.814Z,8.23
2017-11-18T11:59:10.129Z,6.90
2017-11-18T12:01:37.275Z,9.00
2017-11-18T12:04:03.774Z,6.50
2017-11-18T12:06:30.090Z,5.73
2017-11-18T12:08:56.380Z,5.13
2017-11-18T12:11:23.515Z,5.20
2017-11-18T12:13:50.603Z,5.57
2017-11-18T12:16:16.929Z,6.30
2017-11-18T12:18:43.216Z,4.60
2017-11-18T12:21:09.567Z,4.07
2017-11-18T12:23:36.685Z,4.93
2017-11-18T12:26:03.051Z,5.67
2017-11-18T12:28:30.122Z,6.40
2017-11-18T12:30:56.619Z,5.40
2017-11-18T12:33:22.995Z,5.90
2017-11-18T12:35:49.315Z,5.80
2017-11-18T12:38:16.455Z,5.30
2017-11-18T12:40:43.535Z,5.67
2017-11-18T12:43:09.829Z,7.23
2017-11-18T12:45:36.909Z,5.87
2017-11-18T12:48:03.258Z,6.70
2017-11-18T12:50:29.573Z,6.33
2017-11-18T12:52:55.930Z,7.10
2017-11-18T12:55:22.300Z,6.13
2017-11-18T12:57:49.366Z,6.10
2017-11-18T13:00:16.411Z,6.83
2017-11-18T13:02:42.732Z,7.90
2017-11-18T13:05:09.782Z,7.90
2017-11-18T13:07:36.831Z,7.67
2017-11-18T13:10:03.856Z,7.67
2017-11-18T13:12:30.199Z,7.53
2017-11-18T13:14:56.501Z,6.90
2017-11-18T13:17:22.816Z,7.90
2017-11-18T13:19:49.149Z,7.50
2017-11-18T13:22:15.447Z,9.00
2017-11-18T13:24:41.895Z,8.40
2017-11-18T13:27:08.210Z,9.30
2017-11-18T13:29:34.546Z,7.90
2017-11-18T13:32:00.894Z,8.57
2017-11-18T13:34:27.183Z,9.20
2017-11-18T13:36:54.229Z,9.30
2017-11-18T13:39:20.550Z,8.60
2017-11-18T13:41:46.834Z,10.10
2017-11-18T13:44:13.146Z,9.70
2017-11-18T13:46:39.449Z,9.93
2017-11-18T13:49:05.730Z,8.67
2017-11-18T13:51:32.046Z,8.90
2017-11-18T13:53:58.375Z,9.97
2017-11-18T13:56:24.862Z,9.93
2017-11-18T13:58:51.119Z,10.47
2017-11-18T14:01:18.158Z,11.50
2017-11-18T14:03:45.195Z,9.17
2017-11-18T14:06:11.563Z,9.93
2017-11-18T14:08:37.948Z,10.40
2017-11-18T14:11:04.302Z,8.43
2017-11-18T14:13:31.427Z,8.10
2017-11-18T14:15:57.713Z,9.13
2017-11-18T14:18:24.023Z,9.00
2017-11-18T14:20:51.049Z,8.93
2017-11-18T14:23:17.367Z,8.07
2017-11-18T14:25:43.707Z,7.70
2017-11-18T14:28:11.581Z,8.70
2017-11-18T14:30:37.878Z,8.70
2017-11-18T14:33:04.309Z,9.47
2017-11-18T14:35:30.572Z,9.33
2017-11-18T14:37:56.946Z,8.60
2017-11-18T14:40:23.271Z,10.57
2017-11-18T14:42:49.603Z,8.93
2017-11-18T14:45:15.962Z,8.93
2017-11-18T14:47:42.297Z,8.03
2017-11-18T14:50:08.598Z,8.67
2017-11-18T14:52:34.932Z,9.73
2017-11-18T14:55:01.298Z,8.37
2017-11-18T14:57:27.692Z,8.10
2017-11-18T14:59:53.998Z,7.83
2017-11-18T15:02:21.069Z,7.87
2017-11-18T15:04:47.502Z,7.70
2017-11-18T15:07:13.865Z,7.00
2017-11-18T15:09:40.219Z,8.93
2017-11-18T15:12:06.626Z,8.63
2017-11-18T15:14:39.084Z,7.57
2017-11-18T15:20:21.519Z,7.70
2017-11-18T15:22:54.682Z,7.27
2017-11-18T15:25:28.744Z,7.90
2017-11-18T15:28:02.640Z,8.80
2017-11-18T15:30:35.608Z,6.10
2017-11-18T15:33:04.013Z,7.37
2017-11-18T15:35:32.083Z,7.73
2017-11-18T15:41:10.717Z,6.60
2017-11-18T15:43:41.978Z,7.67
2017-11-18T15:46:11.068Z,7.20
2017-11-18T15:48:45.586Z,7.67
2017-11-18T15:51:17.037Z,7.03
2017-11-18T15:53:59.858Z,7.40
2017-11-18T15:56:31.000Z,7.40
2017-11-18T15:58:59.278Z,7.53
2017-11-18T16:01:33.113Z,7.60
2017-11-18T16:04:02.297Z,6.20
2017-11-18T16:06:43.049Z,7.20
2017-11-18T16:09:10.300Z,7.93
2017-11-18T16:11:37.497Z,7.30
2017-11-18T16:14:05.918Z,7.20
2017-11-18T16:16:33.802Z,7.47
2017-11-18T16:19:02.101Z,6.83
2017-11-18T16:21:29.344Z,6.93
2017-11-18T16:23:56.786Z,6.47
2017-11-18T16:26:24.088Z,6.70
2017-11-18T16:28:52.031Z,6.27
2017-11-18T16:31:20.021Z,6.10
2017-11-18T16:33:47.758Z,7.83
2017-11-18T16:36:14.950Z,7.30
2017-11-18T16:38:42.119Z,6.50
2017-11-18T16:41:08.470Z,6.13
2017-11-18T16:43:34.812Z,6.57
2017-11-18T16:46:01.202Z,5.23
2017-11-18T16:48:28.285Z,7.43
2017-11-18T16:50:54.659Z,5.47
2017-11-18T16:53:20.970Z,6.03
2017-11-18T16:55:47.397Z,5.50
2017-11-18T16:58:13.719Z,5.90
2017-11-18T17:00:40.067Z,5.60
2017-11-18T17:03:06.472Z,6.30
2017-11-18T17:05:32.783Z,5.60
2017-11-18T17:07:59.905Z,6.30
2017-11-18T17:10:26.219Z,5.60
2017-11-18T17:12:52.643Z,6.90
2017-11-18T17:15:18.943Z,6.60
2017-11-18T17:17:45.383Z,5.90
2017-11-18T17:20:11.708Z,5.57
2017-11-18T17:22:38.053Z,5.40
2017-11-18T17:25:04.453Z,5.47
2017-11-18T17:27:31.524Z,5.37
2017-11-18T17:29:57.957Z,6.17
2017-11-18T17:32:24.360Z,5.27
2017-11-18T17:34:50.692Z,6.17
2017-11-18T17:37:17.736Z,5.40
2017-11-18T17:39:44.052Z,5.53
2017-11-18T17:42:10.394Z,4.30
2017-11-18T17:44:36.782Z,5.03
2017-11-18T17:47:03.297Z,4.73
2017-11-18T17:49:29.635Z,4.90
2017-11-18T17:51:55.960Z,4.83
2017-11-18T17:54:22.291Z,3.57
2017-11-18T17:56:48.666Z,3.60
2017-11-18T17:59:14.960Z,6.97
2017-11-18T18:01:41.346Z,4.13
2017-11-18T18:04:08.519Z,3.90
2017-11-18T18:06:35.651Z,4.00
2017-11-18T18:09:01.995Z,4.10
2017-11-18T18:11:29.050Z,4.27
2017-11-18T18:13:56.155Z,4.10
2017-11-18T18:16:22.569Z,4.33
2017-11-18T18:18:48.898Z,4.93
2017-11-18T18:21:15.345Z,4.70
2017-11-18T18:23:41.720Z,4.70
2017-11-18T18:26:08.866Z,4.83
2017-11-18T18:28:36.016Z,4.63
2017-11-18T18:31:02.423Z,6.17
2017-11-18T18:33:28.929Z,6.23
2017-11-18T18:35:55.392Z,6.73
2017-11-18T18:38:22.466Z,6.13
2017-11-18T18:40:48.843Z,6.23
2017-11-18T18:43:15.298Z,6.40
2017-11-18T18:45:41.743Z,7.57
2017-11-18T18:48:08.207Z,6.70
2017-11-18T18:50:35.393Z,7.80
2017-11-18T18:53:01.815Z,7.00
2017-11-18T18:55:30.183Z,8.47
2017-11-18T18:57:57.361Z,8.57
2017-11-18T19:00:24.284Z,7.83
2017-11-18T19:02:50.666Z,7.00
2017-11-18T19:05:17.059Z,7.43
2017-11-18T19:07:43.494Z,6.60
2017-11-18T19:10:10.850Z,7.80
2017-11-18T19:12:37.729Z,8.00
2017-11-18T19:15:04.710Z,6.70
2017-11-18T19:17:32.063Z,8.53
2017-11-18T19:20:00.056Z,9.33
2017-11-18T19:22:26.861Z,8.87
2017-11-18T19:24:53.712Z,9.30
2017-11-18T19:27:21.525Z,8.50
2017-11-18T19:29:48.296Z,9.40
2017-11-18T19:32:15.026Z,8.17
2017-11-18T19:34:41.796Z,9.40
2017-11-18T19:37:08.344Z,7.57
2017-11-18T19:39:37.168Z,8.27
2017-11-18T19:42:03.971Z,9.07
2017-11-18T19:44:30.824Z,7.47
2017-11-18T19:46:57.935Z,7.90
2017-11-18T19:49:24.237Z,9.37
2017-11-18T19:51:50.533Z,9.40
2017-11-18T19:54:17.614Z,9.20
2017-11-18T19:56:44.491Z,8.83
2017-11-18T19:59:11.295Z,9.80
2017-11-18T20:01:37.948Z,9.07
2017-11-18T20:04:04.348Z,8.17
2017-11-18T20:06:31.584Z,8.70
2017-11-18T20:08:59.128Z,8.20
2017-11-18T20:11:26.289Z,9.50
2017-11-18T20:13:52.948Z,9.63
2017-11-18T20:16:19.420Z,10.10
2017-11-18T20:18:45.744Z,10.40
2017-11-18T20:21:13.527Z,10.67
2017-11-18T20:23:40.641Z,11.13
2017-11-18T20:26:06.988Z,10.73
2017-11-18T20:28:34.447Z,10.37
2017-11-18T20:31:01.286Z,10.90
2017-11-18T20:33:27.917Z,9.37
2017-11-18T20:35:55.382Z,11.67
2017-11-18T20:38:21.812Z,11.47
2017-11-18T20:40:49.883Z,10.87
2017-11-18T20:43:16.852Z,9.87
2017-11-18T20:45:43.661Z,10.60
2017-11-18T20:48:10.482Z,9.63
2017-11-18T20:50:38.308Z,9.57
2017-11-18T20:53:05.433Z,9.00
2017-11-18T20:55:32.831Z,8.93
2017-11-18T20:58:00.151Z,8.90
2017-11-18T21:00:27.125Z,9.80
2017-11-18T21:02:55.129Z,8.63
2017-11-18T21:05:23.048Z,10.53
2017-11-18T21:07:49.742Z,9.27
2017-11-18T21:10:18.272Z,9.30
2017-11-18T21:12:46.196Z,9.80
2017-11-18T21:15:13.150Z,8.47
2017-11-18T21:17:39.971Z,8.10
2017-11-18T21:20:06.867Z,8.53
2017-11-18T21:22:33.762Z,9.33
2017-11-18T21:25:00.438Z,8.63
2017-11-18T21:27:27.312Z,9.17
2017-11-18T21:29:54.077Z,11.80
2017-11-18T21:32:21.093Z,9.30
2017-11-18T21:34:48.092Z,8.80
2017-11-18T21:37:16.630Z,9.53
2017-11-18T21:39:43.530Z,9.70
2017-11-18T21:42:10.624Z,10.23
2017-11-18T21:44:37.323Z,9.83
2017-11-18T21:47:04.090Z,9.37
2017-11-18T21:49:32.396Z,8.70
2017-11-18T21:51:59.356Z,10.00
2017-11-18T21:54:26.401Z,8.90
2017-11-18T21:56:55.038Z,9.10
2017-11-18T21:59:21.398Z,10.00
2017-11-18T22:01:48.284Z,8.40
2017-11-18T22:04:17.993Z,12.17
2017-11-18T22:06:45.790Z,10.10
2017-11-18T22:09:14.503Z,9.40
2017-11-18T22:11:41.597Z,9.53
2017-11-18T22:14:08.311Z,9.50
2017-11-18T22:16:35.157Z,9.43
2017-11-18T22:19:02.094Z,9.10
2017-11-18T22:21:29.119Z,11.73
2017-11-18T22:23:55.893Z,10.17
2017-11-18T22:26:22.912Z,10.73
2017-11-18T22:28:49.685Z,10.50
2017-11-18T22:31:17.072Z,9.27
2017-11-18T22:33:44.743Z,10.10
2017-11-18T22:36:11.781Z,9.87
2017-11-18T22:38:40.145Z,9.50
2017-11-18T22:41:07.801Z,10.40
2017-11-18T22:43:34.894Z,9.87
2017-11-18T22:46:01.265Z,8.30
2017-11-18T22:48:27.656Z,9.50
2017-11-18T22:50:54.568Z,8.43
2017-11-18T22:53:22.844Z,8.67
2017-11-18T22:55:51.526Z,8.10
2017-11-18T22:58:18.394Z,8.83
2017-11-18T23:00:46.854Z,7.90
2017-11-18T23:03:14.927Z,8.40
2017-11-18T23:05:41.910Z,7.67
2017-11-18T23:08:09.525Z,8.30
2017-11-18T23:10:37.273Z,8.10
2017-11-18T23:13:04.212Z,8.13
2017-11-18T23:15:32.161Z,7.20
2017-11-18T23:18:00.091Z,7.70
2017-11-18T23:20:27.052Z,6.40
2017-11-18T23:22:53.609Z,6.93
2017-11-18T23:25:20.159Z,6.77
2017-11-18T23:27:46.956Z,5.07
2017-11-18T23:30:13.649Z,6.53
2017-11-18T23:32:40.617Z,6.00
2017-11-18T23:35:08.660Z,7.07
2017-11-18T23:37:35.431Z,6.10
2017-11-18T23:40:04.670Z,6.90
2017-11-18T23:42:31.664Z,6.60
2017-11-18T23:44:58.751Z,6.10
2017-11-18T23:47:25.775Z,6.60
2017-11-18T23:49:52.898Z,7.00
2017-11-18T23:52:20.091Z,7.57
2017-11-18T23:54:47.170Z,7.50
2017-11-18T23:57:13.565Z,7.83
2017-11-18T23:59:39.859Z,8.40
